Estación Meteorológica Peña el Pijo (Robertgarden) [ 11/20/17 01:24:42 CET ]

Fecha Hora Presion(HPa) Temp (°C) Humedad % Rocio (°C) Viento ( m/s) Direccion Lluvia 1Hora(mm) Lluvia 24H(mm) LLuvia Total(mm)
2017-Nov-10 01:01:56 1014.000 -0.1 74 -4.2         1468.01
2017-Nov-10 02:01:45 1013.900 -0.6 76 -4.3         1468.01
2017-Nov-10 03:03:10 1013.400 -1.1 77 -4.6         1468.01
2017-Nov-10 04:01:43 1013.700 -1.8 79 -5.0         1468.01
2017-Nov-10 05:01:35 1013.500 -2.1 80 -5.1         1468.01
2017-Nov-10 06:02:06 1013.900 -2.2 80 -5.2         1468.01
2017-Nov-10 07:01:47 1014.500 -2.8 81 -5.6         1468.01
2017-Nov-10 08:01:56 1014.700 -3.2 81 -6.0         1468.01
2017-Nov-10 09:01:52 1015.100 -0.7 83 -3.2         1468.01
2017-Nov-10 10:01:53 1015.200 6.1 78 2.5         1468.01
2017-Nov-10 11:01:43 1015.500 10.9 54 1.9         1468.01
2017-Nov-10 12:01:38 1015.400 11.6 43 -0.6         1468.01
2017-Nov-10 13:01:47 1015.200 12.1 38 -1.9 2.1 SSW     1468.01
2017-Nov-10 14:01:55 1014.600 12.8 36 -2.0         1468.01
2017-Nov-10 15:01:53 1014.700 13.6 37 -0.9         1468.01
2017-Nov-10 16:01:42 1014.800 13.3 39 -0.4         1468.01
2017-Nov-10 17:02:02 1015.100 12.1 42 -0.5         1468.01
2017-Nov-10 18:01:34 1015.400 9.8 49 -0.4         1468.01
2017-Nov-10 19:01:44 1016.000 8.1 54 -0.7         1468.01
2017-Nov-10 20:01:44 1016.400 5.9 60 -1.3         1468.01
2017-Nov-10 21:01:46 1016.500 4.3 65 -1.8         1468.01
2017-Nov-10 22:02:01 1016.600 3.6 69 -1.6         1468.01
2017-Nov-10 23:01:48 1016.600 3.3 71 -1.4         1468.01

Temperatura Máxima:13°    Temperatura Mínima:-3°
Presión Máxima:1016.600 Hpa    Presión Mínima:1013.400 Hpa


Volver